Airfield :
LOGIN :

Register | Disclaimer

   EN    FR    IT 

 










Legend :    VFR   Marginal VFR   IFR   Intensive IFR   Very Intensive IFR
Visi :
Ceiling :
>= 8 km
>= 3000ft
5 to 8 km
1000 to 3000 ft
1500m to 5 km
500 to 1000 ft
800 to 1500m
200 to 500 ft
< 800m
< 200 ft
Symbols :   Thunderstorms  Fog  Heavy snow  Heavy precipitations  Wind > 20 kt
SIGMETs :     Misc.  Thunderstorms  Icing  Turbulence  Mountain Waves  Volcanic Ashes







- Airport Elevation : 122 ft
- IATA code : TXL


EDDT - Berlin Tegel Int.

CURRENT METAR :
  • 200050Z 24003KT 220V280 CAVOK 17/12 Q1015

EXPIRED METARs :
  • 200020Z 25004KT CAVOK 17/12 Q1015
  • 192350Z 29006KT 250V310 CAVOK 19/13 Q1015
  • 192320Z VRB02KT CAVOK 18/13 Q1015
  • 192250Z VRB01KT CAVOK 18/13 Q1015
  • 192220Z 00000KT CAVOK 18/14 Q1015

TAF TAF EDDT
Valid from the 20 at 00:00 until the 21 at 00:00 UTC


192300Z 2000/2024 26004KT CAVOK
BECMG 2006/2008 27012KT
TEMPO 2011/2015 28015G25KT
BECMG 2017/2019 30007KT
No reported NOTAMs for that airfield.



MET'MAP, your aeronautical weather chart ! - Copyright ORBIFLY December 2007 - Disclaimer

ORBIFLY MET'MAP TEAM :

Programming & Development : Alexandra Zaïnal
Concept & Development : Baudouin d'Aumeries
Co-Development & Prog : Marc-Olivier Méhu
Technical & hardware support : Manuel Goepfert

Contact : metmap@orbifly.com




SOURCES & CREDITS :

   NOAA